Eagle Lake, Minnesota
Current Conditions -  °F | °C
As of 5:15 PM on Tuesday 25 Nov 2014 (Local Time) from KMKT Reporting Station
Overcast Overcast  
Wind Chill: -9°   Ceiling: 5000
Heat Index: -3°   Visibility: 10mi
Dew Point: -11°   Wind: 13mph
Humidity: 55%   Direction: 140°SE
Pressure: 29.99"   Gusts: NA
Location:  44.16°N, 93.88°W
Report Text: KMKT 252315Z AUTO 14011KT 10SM OVC050 M03/M11 A2999 RMK AO1
Loading
Personal Weather Stations






























Interactive Weather Map New forecast layout! Learn more

10-Day Weather Forecast

Advertisements
Track Severe Weather on mobile